sensor_id;sensor_type;location;lat;lon;timestamp;P1;durP1;ratioP1;P2;durP2;ratioP2
80272;SDS011;69574;45.328;9.598;2023-11-19T00:00:27;22.17;;;12.73;;
80272;SDS011;69574;45.328;9.598;2023-11-19T00:02:54;19.83;;;12.18;;
80272;SDS011;69574;45.328;9.598;2023-11-19T00:05:20;18.70;;;12.20;;
80272;SDS011;69574;45.328;9.598;2023-11-19T00:07:46;22.20;;;12.85;;
80272;SDS011;69574;45.328;9.598;2023-11-19T00:10:12;23.45;;;12.77;;
80272;SDS011;69574;45.328;9.598;2023-11-19T00:12:38;20.95;;;12.18;;
80272;SDS011;69574;45.328;9.598;2023-11-19T00:15:05;17.60;;;12.00;;
80272;SDS011;69574;45.328;9.598;2023-11-19T00:19:58;17.33;;;11.87;;
80272;SDS011;69574;45.328;9.598;2023-11-19T00:22:24;18.80;;;12.25;;
80272;SDS011;69574;45.328;9.598;2023-11-19T00:24:51;19.65;;;12.63;;
80272;SDS011;69574;45.328;9.598;2023-11-19T00:27:16;17.35;;;12.35;;
80272;SDS011;69574;45.328;9.598;2023-11-19T00:29:43;19.55;;;11.63;;
80272;SDS011;69574;45.328;9.598;2023-11-19T00:32:10;19.13;;;11.90;;
80272;SDS011;69574;45.328;9.598;2023-11-19T00:34:36;22.13;;;13.00;;
80272;SDS011;69574;45.328;9.598;2023-11-19T00:37:04;19.65;;;12.30;;
80272;SDS011;69574;45.328;9.598;2023-11-19T00:39:29;16.30;;;11.80;;
80272;SDS011;69574;45.328;9.598;2023-11-19T00:41:55;16.27;;;11.60;;
80272;SDS011;69574;45.328;9.598;2023-11-19T00:44:21;18.10;;;12.10;;
80272;SDS011;69574;45.328;9.598;2023-11-19T00:46:47;20.70;;;12.90;;
80272;SDS011;69574;45.328;9.598;2023-11-19T00:49:13;18.63;;;12.23;;
80272;SDS011;69574;45.328;9.598;2023-11-19T00:51:38;20.35;;;12.45;;
80272;SDS011;69574;45.328;9.598;2023-11-19T00:54:06;21.23;;;12.40;;
80272;SDS011;69574;45.328;9.598;2023-11-19T00:56:31;23.25;;;13.05;;
80272;SDS011;69574;45.328;9.598;2023-11-19T00:58:57;21.70;;;13.50;;
80272;SDS011;69574;45.328;9.598;2023-11-19T01:01:23;18.58;;;13.15;;
80272;SDS011;69574;45.328;9.598;2023-11-19T01:03:48;20.80;;;13.77;;
80272;SDS011;69574;45.328;9.598;2023-11-19T01:06:14;18.92;;;13.23;;
80272;SDS011;69574;45.328;9.598;2023-11-19T01:08:42;19.02;;;12.90;;
80272;SDS011;69574;45.328;9.598;2023-11-19T01:11:20;18.67;;;12.57;;
80272;SDS011;69574;45.328;9.598;2023-11-19T01:13:46;17.77;;;11.75;;
80272;SDS011;69574;45.328;9.598;2023-11-19T01:16:12;22.02;;;13.52;;
80272;SDS011;69574;45.328;9.598;2023-11-19T01:18:38;20.05;;;13.90;;
80272;SDS011;69574;45.328;9.598;2023-11-19T01:21:04;24.55;;;15.02;;
80272;SDS011;69574;45.328;9.598;2023-11-19T01:23:30;21.63;;;13.30;;
80272;SDS011;69574;45.328;9.598;2023-11-19T01:25:55;22.58;;;13.23;;
80272;SDS011;69574;45.328;9.598;2023-11-19T01:28:22;22.02;;;14.15;;
80272;SDS011;69574;45.328;9.598;2023-11-19T01:30:50;22.83;;;14.45;;
80272;SDS011;69574;45.328;9.598;2023-11-19T01:33:15;23.90;;;14.95;;
80272;SDS011;69574;45.328;9.598;2023-11-19T01:35:41;22.85;;;15.32;;
80272;SDS011;69574;45.328;9.598;2023-11-19T01:38:07;22.23;;;14.60;;
80272;SDS011;69574;45.328;9.598;2023-11-19T01:40:33;22.20;;;14.20;;
80272;SDS011;69574;45.328;9.598;2023-11-19T01:42:59;19.90;;;13.73;;
80272;SDS011;69574;45.328;9.598;2023-11-19T01:45:28;23.35;;;14.68;;
80272;SDS011;69574;45.328;9.598;2023-11-19T01:47:54;22.30;;;15.40;;
80272;SDS011;69574;45.328;9.598;2023-11-19T01:50:20;19.35;;;13.85;;
80272;SDS011;69574;45.328;9.598;2023-11-19T01:52:46;20.20;;;13.63;;
80272;SDS011;69574;45.328;9.598;2023-11-19T01:55:12;21.35;;;15.23;;
80272;SDS011;69574;45.328;9.598;2023-11-19T01:57:38;20.48;;;14.50;;
80272;SDS011;69574;45.328;9.598;2023-11-19T02:00:06;18.52;;;13.65;;
80272;SDS011;69574;45.328;9.598;2023-11-19T02:02:34;22.80;;;13.85;;
80272;SDS011;69574;45.328;9.598;2023-11-19T02:05:00;21.17;;;14.00;;
80272;SDS011;69574;45.328;9.598;2023-11-19T02:07:25;21.15;;;14.55;;
80272;SDS011;69574;45.328;9.598;2023-11-19T02:09:51;19.52;;;14.18;;
80272;SDS011;69574;45.328;9.598;2023-11-19T02:12:17;22.25;;;13.80;;
80272;SDS011;69574;45.328;9.598;2023-11-19T02:14:42;21.02;;;13.88;;
80272;SDS011;69574;45.328;9.598;2023-11-19T02:17:08;22.17;;;14.63;;
80272;SDS011;69574;45.328;9.598;2023-11-19T02:19:51;22.48;;;13.95;;
80272;SDS011;69574;45.328;9.598;2023-11-19T02:24:42;17.83;;;12.50;;
80272;SDS011;69574;45.328;9.598;2023-11-19T02:27:10;22.75;;;14.43;;
80272;SDS011;69574;45.328;9.598;2023-11-19T02:29:42;24.80;;;15.70;;
80272;SDS011;69574;45.328;9.598;2023-11-19T02:32:08;24.27;;;15.57;;
80272;SDS011;69574;45.328;9.598;2023-11-19T02:34:34;20.73;;;13.98;;
80272;SDS011;69574;45.328;9.598;2023-11-19T02:37:00;21.10;;;13.75;;
80272;SDS011;69574;45.328;9.598;2023-11-19T02:39:25;20.30;;;13.10;;
80272;SDS011;69574;45.328;9.598;2023-11-19T02:41:51;18.38;;;13.38;;
80272;SDS011;69574;45.328;9.598;2023-11-19T02:44:18;21.63;;;12.70;;
80272;SDS011;69574;45.328;9.598;2023-11-19T02:46:45;19.45;;;13.13;;
80272;SDS011;69574;45.328;9.598;2023-11-19T02:49:13;20.88;;;13.57;;
80272;SDS011;69574;45.328;9.598;2023-11-19T02:51:39;24.25;;;14.88;;
80272;SDS011;69574;45.328;9.598;2023-11-19T02:54:05;19.95;;;12.60;;
80272;SDS011;69574;45.328;9.598;2023-11-19T02:56:30;22.45;;;14.38;;
80272;SDS011;69574;45.328;9.598;2023-11-19T02:59:00;21.00;;;13.63;;
80272;SDS011;69574;45.328;9.598;2023-11-19T03:04:00;19.95;;;12.98;;
80272;SDS011;69574;45.328;9.598;2023-11-19T03:06:27;23.17;;;14.32;;
80272;SDS011;69574;45.328;9.598;2023-11-19T03:08:54;18.55;;;13.38;;
80272;SDS011;69574;45.328;9.598;2023-11-19T03:11:19;21.38;;;12.63;;
80272;SDS011;69574;45.328;9.598;2023-11-19T03:13:45;25.02;;;15.38;;
80272;SDS011;69574;45.328;9.598;2023-11-19T03:16:12;20.13;;;14.85;;
80272;SDS011;69574;45.328;9.598;2023-11-19T03:18:37;21.33;;;14.52;;
80272;SDS011;69574;45.328;9.598;2023-11-19T03:21:06;19.30;;;14.05;;
80272;SDS011;69574;45.328;9.598;2023-11-19T03:23:31;21.33;;;14.02;;
80272;SDS011;69574;45.328;9.598;2023-11-19T03:25:57;22.27;;;13.60;;
80272;SDS011;69574;45.328;9.598;2023-11-19T03:28:23;23.88;;;15.70;;
80272;SDS011;69574;45.328;9.598;2023-11-19T03:30:48;26.55;;;15.25;;
80272;SDS011;69574;45.328;9.598;2023-11-19T03:33:14;25.52;;;16.45;;
80272;SDS011;69574;45.328;9.598;2023-11-19T03:35:40;22.05;;;15.23;;
80272;SDS011;69574;45.328;9.598;2023-11-19T03:38:07;21.08;;;13.70;;
80272;SDS011;69574;45.328;9.598;2023-11-19T03:42:58;24.77;;;14.13;;
80272;SDS011;69574;45.328;9.598;2023-11-19T03:45:24;21.60;;;15.70;;
80272;SDS011;69574;45.328;9.598;2023-11-19T03:47:50;23.88;;;15.05;;
80272;SDS011;69574;45.328;9.598;2023-11-19T03:50:15;23.15;;;14.52;;
80272;SDS011;69574;45.328;9.598;2023-11-19T03:52:41;27.65;;;15.75;;
80272;SDS011;69574;45.328;9.598;2023-11-19T03:55:09;24.30;;;15.60;;
80272;SDS011;69574;45.328;9.598;2023-11-19T03:57:34;24.25;;;15.15;;
80272;SDS011;69574;45.328;9.598;2023-11-19T04:00:00;24.77;;;15.38;;
80272;SDS011;69574;45.328;9.598;2023-11-19T04:02:31;22.23;;;14.27;;
80272;SDS011;69574;45.328;9.598;2023-11-19T04:04:57;23.55;;;14.57;;
80272;SDS011;69574;45.328;9.598;2023-11-19T04:07:22;26.23;;;14.85;;
80272;SDS011;69574;45.328;9.598;2023-11-19T04:09:48;23.52;;;15.48;;
80272;SDS011;69574;45.328;9.598;2023-11-19T04:12:15;23.63;;;14.48;;
80272;SDS011;69574;45.328;9.598;2023-11-19T04:17:06;22.83;;;13.87;;
80272;SDS011;69574;45.328;9.598;2023-11-19T04:19:31;22.17;;;15.50;;
80272;SDS011;69574;45.328;9.598;2023-11-19T04:21:58;18.95;;;14.15;;
80272;SDS011;69574;45.328;9.598;2023-11-19T04:24:23;22.25;;;13.60;;
80272;SDS011;69574;45.328;9.598;2023-11-19T04:26:49;26.30;;;16.67;;
80272;SDS011;69574;45.328;9.598;2023-11-19T04:29:16;24.60;;;14.98;;
80272;SDS011;69574;45.328;9.598;2023-11-19T04:34:07;18.77;;;12.67;;
80272;SDS011;69574;45.328;9.598;2023-11-19T04:36:33;23.92;;;14.43;;
80272;SDS011;69574;45.328;9.598;2023-11-19T04:38:59;19.63;;;13.50;;
80272;SDS011;69574;45.328;9.598;2023-11-19T04:41:24;20.00;;;13.80;;
80272;SDS011;69574;45.328;9.598;2023-11-19T04:43:50;20.90;;;13.43;;
80272;SDS011;69574;45.328;9.598;2023-11-19T04:46:17;18.08;;;13.27;;
80272;SDS011;69574;45.328;9.598;2023-11-19T04:48:44;20.88;;;13.38;;
80272;SDS011;69574;45.328;9.598;2023-11-19T04:51:10;17.38;;;11.90;;
80272;SDS011;69574;45.328;9.598;2023-11-19T04:53:35;16.55;;;12.27;;
80272;SDS011;69574;45.328;9.598;2023-11-19T04:56:01;19.05;;;13.10;;
80272;SDS011;69574;45.328;9.598;2023-11-19T04:58:32;16.50;;;12.65;;
80272;SDS011;69574;45.328;9.598;2023-11-19T05:00:59;18.73;;;13.18;;
80272;SDS011;69574;45.328;9.598;2023-11-19T05:03:26;17.88;;;12.32;;
80272;SDS011;69574;45.328;9.598;2023-11-19T05:05:52;19.02;;;14.13;;
80272;SDS011;69574;45.328;9.598;2023-11-19T05:08:17;22.15;;;13.20;;
80272;SDS011;69574;45.328;9.598;2023-11-19T05:10:43;19.10;;;13.00;;
80272;SDS011;69574;45.328;9.598;2023-11-19T05:13:09;18.75;;;12.43;;
80272;SDS011;69574;45.328;9.598;2023-11-19T05:15:35;22.23;;;14.32;;
80272;SDS011;69574;45.328;9.598;2023-11-19T05:18:01;19.88;;;13.85;;
80272;SDS011;69574;45.328;9.598;2023-11-19T05:20:28;20.95;;;13.10;;
80272;SDS011;69574;45.328;9.598;2023-11-19T05:25:19;18.43;;;12.20;;
80272;SDS011;69574;45.328;9.598;2023-11-19T05:27:45;19.10;;;13.32;;
80272;SDS011;69574;45.328;9.598;2023-11-19T05:30:11;17.80;;;13.35;;
80272;SDS011;69574;45.328;9.598;2023-11-19T05:32:37;19.13;;;12.70;;
80272;SDS011;69574;45.328;9.598;2023-11-19T05:35:02;19.17;;;12.77;;
80272;SDS011;69574;45.328;9.598;2023-11-19T05:37:30;22.88;;;14.07;;
80272;SDS011;69574;45.328;9.598;2023-11-19T05:42:21;24.57;;;16.43;;
80272;SDS011;69574;45.328;9.598;2023-11-19T05:44:46;28.48;;;16.27;;
80272;SDS011;69574;45.328;9.598;2023-11-19T05:47:12;22.35;;;14.38;;
80272;SDS011;69574;45.328;9.598;2023-11-19T05:49:37;23.50;;;14.73;;
80272;SDS011;69574;45.328;9.598;2023-11-19T05:52:03;23.45;;;14.50;;
80272;SDS011;69574;45.328;9.598;2023-11-19T05:54:34;20.63;;;14.38;;
80272;SDS011;69574;45.328;9.598;2023-11-19T05:57:03;19.88;;;12.93;;
80272;SDS011;69574;45.328;9.598;2023-11-19T05:59:28;22.55;;;14.30;;
80272;SDS011;69574;45.328;9.598;2023-11-19T06:01:55;18.58;;;13.20;;
80272;SDS011;69574;45.328;9.598;2023-11-19T06:04:22;20.17;;;14.38;;
80272;SDS011;69574;45.328;9.598;2023-11-19T06:06:48;26.40;;;14.85;;
80272;SDS011;69574;45.328;9.598;2023-11-19T06:09:14;23.95;;;14.35;;
80272;SDS011;69574;45.328;9.598;2023-11-19T06:11:41;21.42;;;13.23;;
80272;SDS011;69574;45.328;9.598;2023-11-19T06:16:32;17.48;;;12.55;;
80272;SDS011;69574;45.328;9.598;2023-11-19T06:18:58;17.35;;;11.98;;
80272;SDS011;69574;45.328;9.598;2023-11-19T06:21:23;34.78;;;13.45;;
80272;SDS011;69574;45.328;9.598;2023-11-19T06:23:50;19.52;;;13.13;;
80272;SDS011;69574;45.328;9.598;2023-11-19T06:26:17;19.60;;;12.07;;
80272;SDS011;69574;45.328;9.598;2023-11-19T06:28:45;19.38;;;12.82;;
80272;SDS011;69574;45.328;9.598;2023-11-19T06:31:11;22.25;;;13.02;;
80272;SDS011;69574;45.328;9.598;2023-11-19T06:33:37;19.30;;;12.05;;
80272;SDS011;69574;45.328;9.598;2023-11-19T06:36:03;23.83;;;13.35;;
80272;SDS011;69574;45.328;9.598;2023-11-19T06:38:29;19.70;;;12.82;;
80272;SDS011;69574;45.328;9.598;2023-11-19T06:40:54;23.20;;;13.32;;
80272;SDS011;69574;45.328;9.598;2023-11-19T06:43:20;24.27;;;13.50;;
80272;SDS011;69574;45.328;9.598;2023-11-19T06:45:47;19.33;;;13.20;;
80272;SDS011;69574;45.328;9.598;2023-11-19T06:50:38;19.00;;;11.90;;
80272;SDS011;69574;45.328;9.598;2023-11-19T06:53:04;22.02;;;12.73;;
80272;SDS011;69574;45.328;9.598;2023-11-19T06:55:31;18.23;;;12.57;;
80272;SDS011;69574;45.328;9.598;2023-11-19T06:57:59;20.15;;;13.32;;
80272;SDS011;69574;45.328;9.598;2023-11-19T07:00:25;21.88;;;13.57;;
80272;SDS011;69574;45.328;9.598;2023-11-19T07:02:52;18.95;;;12.25;;
80272;SDS011;69574;45.328;9.598;2023-11-19T07:07:43;17.50;;;11.70;;
80272;SDS011;69574;45.328;9.598;2023-11-19T07:10:08;21.33;;;12.50;;
80272;SDS011;69574;45.328;9.598;2023-11-19T07:12:34;16.75;;;11.45;;
80272;SDS011;69574;45.328;9.598;2023-11-19T07:15:01;17.58;;;11.55;;
80272;SDS011;69574;45.328;9.598;2023-11-19T07:17:27;24.50;;;11.75;;
80272;SDS011;69574;45.328;9.598;2023-11-19T07:19:54;18.48;;;11.40;;
80272;SDS011;69574;45.328;9.598;2023-11-19T07:24:45;16.98;;;10.90;;
80272;SDS011;69574;45.328;9.598;2023-11-19T07:27:11;16.95;;;11.50;;
80272;SDS011;69574;45.328;9.598;2023-11-19T07:29:38;19.05;;;12.27;;
80272;SDS011;69574;45.328;9.598;2023-11-19T07:32:06;21.00;;;12.35;;
80272;SDS011;69574;45.328;9.598;2023-11-19T07:34:33;15.23;;;10.73;;
80272;SDS011;69574;45.328;9.598;2023-11-19T07:37:01;20.25;;;13.05;;
80272;SDS011;69574;45.328;9.598;2023-11-19T07:39:27;19.15;;;10.93;;
80272;SDS011;69574;45.328;9.598;2023-11-19T07:41:53;18.50;;;11.93;;
80272;SDS011;69574;45.328;9.598;2023-11-19T07:44:19;28.50;;;13.10;;
80272;SDS011;69574;45.328;9.598;2023-11-19T07:46:45;15.00;;;10.05;;
80272;SDS011;69574;45.328;9.598;2023-11-19T07:49:10;15.90;;;11.13;;
80272;SDS011;69574;45.328;9.598;2023-11-19T07:51:36;15.95;;;11.13;;
80272;SDS011;69574;45.328;9.598;2023-11-19T07:54:03;16.08;;;11.15;;
80272;SDS011;69574;45.328;9.598;2023-11-19T07:56:29;17.27;;;10.82;;
80272;SDS011;69574;45.328;9.598;2023-11-19T07:58:55;17.08;;;11.23;;
80272;SDS011;69574;45.328;9.598;2023-11-19T08:01:20;17.48;;;11.65;;
80272;SDS011;69574;45.328;9.598;2023-11-19T08:03:46;16.02;;;10.85;;
80272;SDS011;69574;45.328;9.598;2023-11-19T08:06:11;18.05;;;11.35;;
80272;SDS011;69574;45.328;9.598;2023-11-19T08:08:37;16.40;;;11.25;;
80272;SDS011;69574;45.328;9.598;2023-11-19T08:11:05;20.98;;;12.07;;
80272;SDS011;69574;45.328;9.598;2023-11-19T08:13:31;20.88;;;11.80;;
80272;SDS011;69574;45.328;9.598;2023-11-19T08:15:57;18.77;;;12.20;;
80272;SDS011;69574;45.328;9.598;2023-11-19T08:18:23;17.85;;;12.43;;
80272;SDS011;69574;45.328;9.598;2023-11-19T08:20:49;18.85;;;12.30;;
80272;SDS011;69574;45.328;9.598;2023-11-19T08:23:18;19.23;;;12.52;;
80272;SDS011;69574;45.328;9.598;2023-11-19T08:25:43;18.45;;;10.88;;
80272;SDS011;69574;45.328;9.598;2023-11-19T08:28:11;18.38;;;12.27;;
80272;SDS011;69574;45.328;9.598;2023-11-19T08:30:36;16.58;;;12.30;;
80272;SDS011;69574;45.328;9.598;2023-11-19T08:33:02;22.38;;;13.75;;
80272;SDS011;69574;45.328;9.598;2023-11-19T08:35:28;17.33;;;12.70;;
80272;SDS011;69574;45.328;9.598;2023-11-19T08:37:53;20.38;;;12.88;;
80272;SDS011;69574;45.328;9.598;2023-11-19T08:40:19;22.90;;;14.13;;
80272;SDS011;69574;45.328;9.598;2023-11-19T08:42:45;18.48;;;13.65;;
80272;SDS011;69574;45.328;9.598;2023-11-19T08:45:12;20.13;;;14.15;;
80272;SDS011;69574;45.328;9.598;2023-11-19T08:47:38;23.10;;;13.45;;
80272;SDS011;69574;45.328;9.598;2023-11-19T08:50:06;22.48;;;14.38;;
80272;SDS011;69574;45.328;9.598;2023-11-19T08:52:32;18.60;;;13.93;;
80272;SDS011;69574;45.328;9.598;2023-11-19T08:54:57;20.55;;;13.82;;
80272;SDS011;69574;45.328;9.598;2023-11-19T08:57:23;22.13;;;15.05;;
80272;SDS011;69574;45.328;9.598;2023-11-19T08:59:49;22.27;;;14.25;;
80272;SDS011;69574;45.328;9.598;2023-11-19T09:02:16;22.63;;;14.85;;
80272;SDS011;69574;45.328;9.598;2023-11-19T09:04:41;19.70;;;14.57;;
80272;SDS011;69574;45.328;9.598;2023-11-19T09:09:36;25.60;;;14.93;;
80272;SDS011;69574;45.328;9.598;2023-11-19T09:12:02;21.45;;;14.65;;
80272;SDS011;69574;45.328;9.598;2023-11-19T09:14:29;18.25;;;13.73;;
80272;SDS011;69574;45.328;9.598;2023-11-19T09:16:54;19.33;;;13.85;;
80272;SDS011;69574;45.328;9.598;2023-11-19T09:19:22;20.70;;;14.23;;
80272;SDS011;69574;45.328;9.598;2023-11-19T09:21:48;18.92;;;13.32;;
80272;SDS011;69574;45.328;9.598;2023-11-19T09:24:14;23.02;;;14.65;;
80272;SDS011;69574;45.328;9.598;2023-11-19T09:26:40;22.25;;;14.60;;
80272;SDS011;69574;45.328;9.598;2023-11-19T09:29:06;20.48;;;14.32;;
80272;SDS011;69574;45.328;9.598;2023-11-19T09:31:32;19.80;;;13.93;;
80272;SDS011;69574;45.328;9.598;2023-11-19T09:33:58;20.77;;;14.07;;
80272;SDS011;69574;45.328;9.598;2023-11-19T09:36:25;21.70;;;14.07;;
80272;SDS011;69574;45.328;9.598;2023-11-19T09:41:16;21.10;;;13.63;;
80272;SDS011;69574;45.328;9.598;2023-11-19T09:43:44;21.30;;;13.88;;
80272;SDS011;69574;45.328;9.598;2023-11-19T09:46:10;20.35;;;13.95;;
80272;SDS011;69574;45.328;9.598;2023-11-19T09:48:37;19.10;;;13.80;;
80272;SDS011;69574;45.328;9.598;2023-11-19T09:51:03;20.17;;;14.00;;
80272;SDS011;69574;45.328;9.598;2023-11-19T09:53:31;19.90;;;14.18;;
80272;SDS011;69574;45.328;9.598;2023-11-19T09:55:57;19.13;;;12.57;;
80272;SDS011;69574;45.328;9.598;2023-11-19T09:58:23;19.83;;;13.27;;
80272;SDS011;69574;45.328;9.598;2023-11-19T10:00:49;17.85;;;12.40;;
80272;SDS011;69574;45.328;9.598;2023-11-19T10:03:15;16.73;;;12.20;;
80272;SDS011;69574;45.328;9.598;2023-11-19T10:05:41;18.52;;;13.77;;
80272;SDS011;69574;45.328;9.598;2023-11-19T10:08:07;19.10;;;13.15;;
80272;SDS011;69574;45.328;9.598;2023-11-19T10:10:34;19.55;;;13.68;;
80272;SDS011;69574;45.328;9.598;2023-11-19T10:13:00;20.08;;;13.43;;
80272;SDS011;69574;45.328;9.598;2023-11-19T10:15:26;19.58;;;13.82;;
80272;SDS011;69574;45.328;9.598;2023-11-19T10:17:55;21.00;;;14.02;;
80272;SDS011;69574;45.328;9.598;2023-11-19T10:20:21;20.13;;;13.57;;
80272;SDS011;69574;45.328;9.598;2023-11-19T10:22:47;19.30;;;13.75;;
80272;SDS011;69574;45.328;9.598;2023-11-19T10:25:22;18.45;;;14.50;;
80272;SDS011;69574;45.328;9.598;2023-11-19T10:27:50;19.35;;;13.90;;
80272;SDS011;69574;45.328;9.598;2023-11-19T10:30:19;20.83;;;15.25;;
80272;SDS011;69574;45.328;9.598;2023-11-19T10:32:45;21.58;;;14.38;;
80272;SDS011;69574;45.328;9.598;2023-11-19T10:35:11;19.00;;;14.05;;
80272;SDS011;69574;45.328;9.598;2023-11-19T10:37:38;22.52;;;14.32;;
80272;SDS011;69574;45.328;9.598;2023-11-19T10:40:05;23.10;;;14.85;;
80272;SDS011;69574;45.328;9.598;2023-11-19T10:42:30;21.73;;;14.75;;
80272;SDS011;69574;45.328;9.598;2023-11-19T10:44:57;18.60;;;14.55;;
80272;SDS011;69574;45.328;9.598;2023-11-19T10:47:23;21.92;;;14.23;;
80272;SDS011;69574;45.328;9.598;2023-11-19T10:49:49;19.70;;;13.50;;
80272;SDS011;69574;45.328;9.598;2023-11-19T10:52:17;19.63;;;13.55;;
80272;SDS011;69574;45.328;9.598;2023-11-19T10:54:44;20.63;;;14.60;;
80272;SDS011;69574;45.328;9.598;2023-11-19T10:57:14;19.60;;;14.10;;
80272;SDS011;69574;45.328;9.598;2023-11-19T10:59:41;17.42;;;12.70;;
80272;SDS011;69574;45.328;9.598;2023-11-19T11:02:09;26.65;;;13.55;;
80272;SDS011;69574;45.328;9.598;2023-11-19T11:04:36;17.92;;;12.50;;
80272;SDS011;69574;45.328;9.598;2023-11-19T11:07:04;21.25;;;13.75;;
80272;SDS011;69574;45.328;9.598;2023-11-19T11:09:31;19.38;;;13.98;;
80272;SDS011;69574;45.328;9.598;2023-11-19T11:11:57;18.75;;;12.93;;
80272;SDS011;69574;45.328;9.598;2023-11-19T11:14:24;22.42;;;12.88;;
80272;SDS011;69574;45.328;9.598;2023-11-19T11:16:51;21.08;;;13.40;;
80272;SDS011;69574;45.328;9.598;2023-11-19T11:19:20;21.05;;;13.00;;
80272;SDS011;69574;45.328;9.598;2023-11-19T11:21:49;19.13;;;13.13;;
80272;SDS011;69574;45.328;9.598;2023-11-19T11:24:34;21.70;;;13.00;;
80272;SDS011;69574;45.328;9.598;2023-11-19T11:27:15;17.75;;;12.82;;
80272;SDS011;69574;45.328;9.598;2023-11-19T11:29:46;18.08;;;12.73;;
80272;SDS011;69574;45.328;9.598;2023-11-19T11:32:16;19.10;;;12.70;;
80272;SDS011;69574;45.328;9.598;2023-11-19T11:34:55;20.30;;;11.93;;
80272;SDS011;69574;45.328;9.598;2023-11-19T11:37:25;17.98;;;12.80;;
80272;SDS011;69574;45.328;9.598;2023-11-19T11:39:51;17.85;;;11.88;;
80272;SDS011;69574;45.328;9.598;2023-11-19T11:42:35;18.92;;;12.45;;
80272;SDS011;69574;45.328;9.598;2023-11-19T11:45:02;19.05;;;12.73;;
80272;SDS011;69574;45.328;9.598;2023-11-19T11:50:16;20.75;;;13.10;;
80272;SDS011;69574;45.328;9.598;2023-11-19T11:55:24;19.23;;;13.20;;
80272;SDS011;69574;45.328;9.598;2023-11-19T11:57:52;18.17;;;12.93;;
80272;SDS011;69574;45.328;9.598;2023-11-19T12:00:23;18.67;;;12.68;;
80272;SDS011;69574;45.328;9.598;2023-11-19T12:02:51;17.48;;;11.90;;
80272;SDS011;69574;45.328;9.598;2023-11-19T12:05:20;19.83;;;12.02;;
80272;SDS011;69574;45.328;9.598;2023-11-19T12:07:54;16.17;;;11.60;;
80272;SDS011;69574;45.328;9.598;2023-11-19T12:10:20;19.23;;;11.80;;
80272;SDS011;69574;45.328;9.598;2023-11-19T12:12:47;16.40;;;11.48;;
80272;SDS011;69574;45.328;9.598;2023-11-19T12:15:13;18.67;;;12.57;;
80272;SDS011;69574;45.328;9.598;2023-11-19T12:17:43;17.70;;;11.38;;
80272;SDS011;69574;45.328;9.598;2023-11-19T12:20:14;20.58;;;12.30;;
80272;SDS011;69574;45.328;9.598;2023-11-19T12:22:45;18.98;;;11.95;;
80272;SDS011;69574;45.328;9.598;2023-11-19T12:25:12;19.45;;;12.32;;
80272;SDS011;69574;45.328;9.598;2023-11-19T12:27:39;18.13;;;12.30;;
80272;SDS011;69574;45.328;9.598;2023-11-19T12:30:05;17.98;;;12.20;;
80272;SDS011;69574;45.328;9.598;2023-11-19T12:32:40;17.70;;;11.95;;
80272;SDS011;69574;45.328;9.598;2023-11-19T12:35:07;19.17;;;12.50;;
80272;SDS011;69574;45.328;9.598;2023-11-19T12:37:38;17.00;;;11.55;;
80272;SDS011;69574;45.328;9.598;2023-11-19T12:40:11;18.13;;;12.98;;
80272;SDS011;69574;45.328;9.598;2023-11-19T12:42:38;19.27;;;11.90;;
80272;SDS011;69574;45.328;9.598;2023-11-19T12:45:04;17.88;;;12.52;;
80272;SDS011;69574;45.328;9.598;2023-11-19T12:47:31;18.35;;;12.15;;
80272;SDS011;69574;45.328;9.598;2023-11-19T12:52:22;17.00;;;11.63;;
80272;SDS011;69574;45.328;9.598;2023-11-19T12:54:48;19.00;;;12.18;;
80272;SDS011;69574;45.328;9.598;2023-11-19T12:57:16;17.52;;;12.32;;
80272;SDS011;69574;45.328;9.598;2023-11-19T12:59:53;16.42;;;11.75;;
80272;SDS011;69574;45.328;9.598;2023-11-19T13:02:21;16.45;;;11.32;;
80272;SDS011;69574;45.328;9.598;2023-11-19T13:04:47;20.40;;;12.65;;
80272;SDS011;69574;45.328;9.598;2023-11-19T13:07:13;18.45;;;11.82;;
80272;SDS011;69574;45.328;9.598;2023-11-19T13:09:39;18.50;;;12.32;;
80272;SDS011;69574;45.328;9.598;2023-11-19T13:12:12;17.58;;;11.57;;
80272;SDS011;69574;45.328;9.598;2023-11-19T13:14:39;15.82;;;10.93;;
80272;SDS011;69574;45.328;9.598;2023-11-19T13:17:12;16.38;;;11.00;;
80272;SDS011;69574;45.328;9.598;2023-11-19T13:19:38;18.23;;;11.27;;
80272;SDS011;69574;45.328;9.598;2023-11-19T13:22:04;16.23;;;11.10;;
80272;SDS011;69574;45.328;9.598;2023-11-19T13:24:30;16.58;;;11.60;;
80272;SDS011;69574;45.328;9.598;2023-11-19T13:26:55;16.88;;;11.68;;
80272;SDS011;69574;45.328;9.598;2023-11-19T13:29:21;16.48;;;11.63;;
80272;SDS011;69574;45.328;9.598;2023-11-19T13:31:59;19.05;;;11.40;;
80272;SDS011;69574;45.328;9.598;2023-11-19T13:34:25;16.00;;;10.73;;
80272;SDS011;69574;45.328;9.598;2023-11-19T13:36:51;16.45;;;11.30;;
80272;SDS011;69574;45.328;9.598;2023-11-19T13:39:16;15.20;;;10.75;;
80272;SDS011;69574;45.328;9.598;2023-11-19T13:41:48;16.02;;;11.48;;
80272;SDS011;69574;45.328;9.598;2023-11-19T13:44:15;16.73;;;11.45;;
80272;SDS011;69574;45.328;9.598;2023-11-19T13:46:41;15.60;;;10.85;;
80272;SDS011;69574;45.328;9.598;2023-11-19T13:49:11;17.55;;;12.48;;
80272;SDS011;69574;45.328;9.598;2023-11-19T13:51:36;18.80;;;12.32;;
80272;SDS011;69574;45.328;9.598;2023-11-19T13:54:02;19.00;;;11.35;;
80272;SDS011;69574;45.328;9.598;2023-11-19T13:56:28;19.83;;;12.88;;
80272;SDS011;69574;45.328;9.598;2023-11-19T13:58:54;17.67;;;12.15;;
80272;SDS011;69574;45.328;9.598;2023-11-19T14:01:20;18.33;;;12.13;;
80272;SDS011;69574;45.328;9.598;2023-11-19T14:03:45;19.73;;;12.43;;
80272;SDS011;69574;45.328;9.598;2023-11-19T14:06:13;17.73;;;12.27;;
80272;SDS011;69574;45.328;9.598;2023-11-19T14:08:41;16.33;;;11.23;;
80272;SDS011;69574;45.328;9.598;2023-11-19T14:11:07;18.27;;;11.93;;
80272;SDS011;69574;45.328;9.598;2023-11-19T14:13:33;16.23;;;11.45;;
80272;SDS011;69574;45.328;9.598;2023-11-19T14:18:26;19.75;;;11.43;;
80272;SDS011;69574;45.328;9.598;2023-11-19T14:20:51;15.40;;;10.93;;
80272;SDS011;69574;45.328;9.598;2023-11-19T14:23:19;19.23;;;11.35;;
80272;SDS011;69574;45.328;9.598;2023-11-19T14:25:45;16.65;;;11.48;;
80272;SDS011;69574;45.328;9.598;2023-11-19T14:28:11;18.23;;;11.60;;
80272;SDS011;69574;45.328;9.598;2023-11-19T14:30:37;17.92;;;12.02;;
80272;SDS011;69574;45.328;9.598;2023-11-19T14:33:03;17.80;;;11.93;;
80272;SDS011;69574;45.328;9.598;2023-11-19T14:35:32;19.65;;;11.52;;
80272;SDS011;69574;45.328;9.598;2023-11-19T14:37:59;19.33;;;12.05;;
80272;SDS011;69574;45.328;9.598;2023-11-19T14:40:26;16.33;;;10.98;;
80272;SDS011;69574;45.328;9.598;2023-11-19T14:42:52;17.10;;;11.02;;
80272;SDS011;69574;45.328;9.598;2023-11-19T14:45:18;17.02;;;11.55;;
80272;SDS011;69574;45.328;9.598;2023-11-19T14:47:47;18.15;;;11.48;;
80272;SDS011;69574;45.328;9.598;2023-11-19T14:50:13;17.42;;;11.95;;
80272;SDS011;69574;45.328;9.598;2023-11-19T14:52:38;19.17;;;12.60;;
80272;SDS011;69574;45.328;9.598;2023-11-19T14:55:04;17.70;;;11.55;;
80272;SDS011;69574;45.328;9.598;2023-11-19T14:57:32;21.58;;;12.48;;
80272;SDS011;69574;45.328;9.598;2023-11-19T14:59:58;19.67;;;11.90;;
80272;SDS011;69574;45.328;9.598;2023-11-19T15:02:25;19.17;;;11.93;;